Time;durP1;ratioP1;P1;durP2;ratioP2;P2;SDS_P1;SDS_P2;PMS_P1;PMS_P2;Temp;Humidity;BMP_temperature;BMP_pressure;BME280_temperature;BME280_humidity;BME280_pressure;Samples;Min_cycle;Max_cycle;Signal;HPM_P1;HPM_P2
2021/04/08 00:05:43;;;;;;;6.62;2.33;;;1.90;99.90;;;;;;6724662;88;20177;-75
2021/04/08 00:15:43;;;;;;;9.98;2.50;;;1.90;99.90;;;;;;6737644;88;20306;-75
2021/04/08 00:25:44;;;;;;;11.60;2.70;;;1.80;99.90;;;;;;6736114;88;20217;-76
2021/04/08 00:35:45;;;;;;;9.98;2.53;;;1.70;99.90;;;;;;6735314;88;20663;-75
2021/04/08 00:45:45;;;;;;;11.75;2.95;;;1.80;99.90;;;;;;6735658;88;20254;-75
2021/04/08 00:55:48;;;;;;;7.62;2.60;;;1.70;99.90;;;;;;6736847;88;20322;-75
2021/04/08 01:05:48;;;;;;;7.90;2.50;;;1.80;99.90;;;;;;6735548;88;20192;-75
2021/04/08 01:15:50;;;;;;;10.25;3.08;;;1.90;99.90;;;;;;6736489;88;20324;-74
2021/04/08 01:26:27;;;;;;;8.90;2.95;;;1.90;99.90;;;;;;6736295;88;20759;-75
2021/04/08 01:36:32;;;;;;;11.00;2.85;;;1.90;99.90;;;;;;6730016;88;20185;-75
2021/04/08 01:46:35;;;;;;;8.93;2.65;;;1.90;99.90;;;;;;6720276;88;20184;-75
2021/04/08 01:56:37;;;;;;;4.93;2.55;;;1.90;99.90;;;;;;6716406;88;20202;-75
2021/04/08 02:06:40;;;;;;;9.00;3.10;;;2.00;99.90;;;;;;6722775;88;20204;-75
2021/04/08 02:16:47;;;;;;;8.15;3.25;;;2.00;99.90;;;;;;6722076;88;20279;-75
2021/04/08 02:26:49;;;;;;;11.38;3.37;;;2.00;99.90;;;;;;6723083;88;20173;-75
2021/04/08 02:36:49;;;;;;;9.30;3.65;;;2.00;99.90;;;;;;6722812;88;20205;-76
2021/04/08 02:46:50;;;;;;;7.05;3.15;;;2.00;99.90;;;;;;6723121;88;20185;-75
2021/04/08 02:56:53;;;;;;;7.35;3.22;;;1.90;99.90;;;;;;6722110;88;20221;-75
2021/04/08 03:06:54;;;;;;;7.15;2.53;;;2.00;99.90;;;;;;6722865;88;20228;-76
2021/04/08 03:16:59;;;;;;;7.22;3.08;;;2.00;99.90;;;;;;6722411;88;20207;-75
2021/04/08 03:27:01;;;;;;;6.10;2.62;;;2.00;99.90;;;;;;6721814;88;20203;-74
2021/04/08 03:37:02;;;;;;;7.37;2.60;;;2.00;99.90;;;;;;6722054;88;20327;-74
2021/04/08 03:47:04;;;;;;;7.07;3.00;;;1.90;99.90;;;;;;6721882;88;20232;-75
2021/04/08 03:57:12;;;;;;;8.05;2.87;;;2.10;99.90;;;;;;6719032;88;20230;-75
2021/04/08 04:07:13;;;;;;;13.15;3.90;;;2.00;99.90;;;;;;6720548;88;20656;-74
2021/04/08 04:17:27;;;;;;;10.57;3.72;;;2.10;99.90;;;;;;6720980;88;21018;-74
2021/04/08 04:27:28;;;;;;;9.13;4.30;;;2.10;99.90;;;;;;6725736;88;20195;-78
2021/04/08 04:37:29;;;;;;;9.80;3.97;;;2.10;99.90;;;;;;6722705;88;20229;-74
2021/04/08 04:47:29;;;;;;;10.55;4.00;;;2.10;99.90;;;;;;6731081;88;20690;-74
2021/04/08 04:57:30;;;;;;;10.20;4.07;;;2.00;99.90;;;;;;6685142;76;20209;-74
2021/04/08 05:07:30;;;;;;;9.27;4.20;;;2.10;99.90;;;;;;6680941;89;20731;-74
2021/04/08 05:17:31;;;;;;;9.02;3.95;;;2.10;99.90;;;;;;6684579;89;20207;-74
2021/04/08 05:27:31;;;;;;;10.70;4.12;;;2.10;99.90;;;;;;6682434;89;20198;-73
2021/04/08 05:37:32;;;;;;;9.32;3.42;;;2.20;99.90;;;;;;6683183;88;20230;-73
2021/04/08 05:47:32;;;;;;;8.02;3.85;;;2.30;99.90;;;;;;6691555;89;20737;-73
2021/04/08 05:57:33;;;;;;;10.23;2.72;;;2.40;99.90;;;;;;6685509;89;20207;-73
2021/04/08 06:07:34;;;;;;;10.15;3.55;;;2.50;99.90;;;;;;6685722;89;20212;-74
2021/04/08 06:17:34;;;;;;;8.73;3.65;;;2.70;99.90;;;;;;6699881;89;20175;-73
2021/04/08 06:27:35;;;;;;;10.07;3.30;;;2.90;99.90;;;;;;6685494;89;20253;-74
2021/04/08 06:37:36;;;;;;;7.50;3.53;;;3.10;99.90;;;;;;6685459;88;20797;-75
2021/04/08 06:48:05;;;;;;;9.27;3.45;;;3.40;99.90;;;;;;6686503;88;20198;-73
2021/04/08 06:58:06;;;;;;;7.22;3.00;;;3.70;99.90;;;;;;6687237;89;20534;-74
2021/04/08 07:08:06;;;;;;;7.62;3.00;;;4.20;99.90;;;;;;6671399;89;20729;-73
2021/04/08 07:18:07;;;;;;;6.95;2.78;;;4.80;99.90;;;;;;6671072;89;20320;-74
2021/04/08 07:28:39;;;;;;;6.35;2.85;;;5.30;99.90;;;;;;6668881;89;20183;-74
2021/04/08 07:38:49;;;;;;;6.35;2.45;;;6.00;99.90;;;;;;6670757;88;20280;-74
2021/04/08 07:48:49;;;;;;;6.93;2.70;;;6.00;99.90;;;;;;6670201;89;20225;-75
2021/04/08 07:59:17;;;;;;;7.10;2.05;;;6.10;99.90;;;;;;6667659;89;20208;-74
2021/04/08 08:09:19;;;;;;;5.18;2.30;;;6.30;99.90;;;;;;6671804;89;20678;-74
2021/04/08 08:19:20;;;;;;;5.22;1.87;;;6.30;98.80;;;;;;6672140;89;20195;-75
2021/04/08 08:29:27;;;;;;;11.77;2.25;;;6.30;98.30;;;;;;6684438;89;20207;-74
2021/04/08 08:39:31;;;;;;;6.95;1.90;;;6.40;98.20;;;;;;6670006;89;20215;-75
2021/04/08 08:50:08;;;;;;;4.45;1.70;;;6.60;98.30;;;;;;6666681;87;21102;-75
2021/04/08 09:00:10;;;;;;;4.20;1.60;;;6.90;94.30;;;;;;6664340;89;20183;-73
2021/04/08 09:10:13;;;;;;;3.08;1.25;;;6.90;89.90;;;;;;6664640;89;20210;-73
2021/04/08 09:20:18;;;;;;;4.97;1.45;;;7.20;90.00;;;;;;6665150;89;20243;-74
2021/04/08 09:31:04;;;;;;;2.62;1.45;;;7.10;85.10;;;;;;6667499;89;20207;-75
2021/04/08 09:41:04;;;;;;;3.35;1.50;;;8.10;79.40;;;;;;6667627;89;20751;-74
2021/04/08 09:51:05;;;;;;;5.12;1.65;;;7.60;80.00;;;;;;6666371;89;20213;-75
2021/04/08 10:01:10;;;;;;;3.95;1.80;;;7.60;77.50;;;;;;6666590;89;20194;-74
2021/04/08 10:11:12;;;;;;;6.03;1.85;;;7.70;73.70;;;;;;6665945;88;20244;-74
2021/04/08 10:21:17;;;;;;;4.93;2.22;;;8.50;73.10;;;;;;6669027;89;20700;-74
2021/04/08 10:31:29;;;;;;;6.57;2.28;;;8.50;72.70;;;;;;6669364;88;20203;-74
2021/04/08 10:41:30;;;;;;;4.95;2.08;;;8.70;69.90;;;;;;6670261;89;20313;-74
2021/04/08 11:02:19;;;;;;;6.05;1.92;;;9.90;69.90;;;;;;4758435;88;20180;-75
2021/04/08 11:12:22;;;;;;;4.43;1.62;;;10.50;68.40;;;;;;6747366;87;20662;-75
2021/04/08 11:22:28;;;;;;;6.15;2.00;;;10.70;65.00;;;;;;6735845;88;20385;-75
2021/04/08 11:32:29;;;;;;;5.70;2.40;;;10.90;67.90;;;;;;6731703;88;20178;-75
2021/04/08 11:42:39;;;;;;;8.37;2.30;;;11.90;66.30;;;;;;6735472;88;20208;-75
2021/04/08 11:53:00;;;;;;;4.93;1.80;;;12.20;62.20;;;;;;6730418;88;20638;-76
2021/04/08 12:03:35;;;;;;;5.47;1.80;;;11.70;59.40;;;;;;6742118;88;20263;-77
2021/04/08 12:13:35;;;;;;;5.12;2.00;;;11.10;62.20;;;;;;6728081;88;20191;-76
2021/04/08 12:23:37;;;;;;;3.40;2.00;;;12.50;61.80;;;;;;6739965;88;20280;-76
2021/04/08 12:33:40;;;;;;;4.82;1.90;;;12.80;60.30;;;;;;6743432;88;20528;-76
2021/04/08 12:43:41;;;;;;;5.53;2.12;;;12.20;61.70;;;;;;6736272;88;20303;-76
2021/04/08 12:53:42;;;;;;;3.60;1.87;;;13.60;59.80;;;;;;6734380;88;20585;-75
2021/04/08 13:03:43;;;;;;;3.87;1.62;;;12.90;62.30;;;;;;6732722;88;20316;-76
2021/04/08 13:13:43;;;;;;;3.22;1.60;;;12.10;60.20;;;;;;6733156;88;20188;-76
2021/04/08 13:23:44;;;;;;;4.15;1.90;;;12.40;60.60;;;;;;6733481;88;20232;-76
2021/04/08 13:33:44;;;;;;;4.93;1.58;;;12.60;59.00;;;;;;6733380;88;20218;-76
2021/04/08 13:43:45;;;;;;;3.33;1.60;;;12.50;58.70;;;;;;6733217;88;20285;-76
2021/04/08 13:53:46;;;;;;;4.50;1.97;;;12.10;59.40;;;;;;6733906;88;20233;-76
2021/04/08 14:03:46;;;;;;;6.72;2.25;;;12.70;59.80;;;;;;6737269;88;20704;-76
2021/04/08 14:13:47;;;;;;;6.37;2.23;;;12.80;56.60;;;;;;6753573;88;20194;-76
2021/04/08 14:23:50;;;;;;;5.12;2.30;;;12.80;57.90;;;;;;6737227;88;20191;-76
2021/04/08 14:33:50;;;;;;;5.78;2.85;;;12.80;58.10;;;;;;6734150;88;20213;-76
2021/04/08 14:43:51;;;;;;;8.50;2.83;;;13.00;62.60;;;;;;6735519;88;20196;-76
2021/04/08 14:53:51;;;;;;;4.82;2.72;;;12.40;59.50;;;;;;6735341;88;20815;-76
2021/04/08 15:03:52;;;;;;;6.25;3.70;;;12.50;57.60;;;;;;6735191;88;20201;-77
2021/04/08 15:13:52;;;;;;;5.35;3.62;;;12.30;61.50;;;;;;6735608;88;20188;-76
2021/04/08 15:23:53;;;;;;;6.30;3.62;;;12.00;61.20;;;;;;6736277;88;20196;-76
2021/04/08 15:33:54;;;;;;;6.37;3.70;;;12.10;58.20;;;;;;6737722;88;20294;-75
2021/04/08 15:43:54;;;;;;;5.12;2.85;;;12.10;59.10;;;;;;6733983;88;20214;-75
2021/04/08 15:53:55;;;;;;;7.62;4.00;;;11.10;60.40;;;;;;6731152;88;20188;-77
2021/04/08 16:03:57;;;;;;;6.78;3.40;;;11.30;59.90;;;;;;6742977;88;20232;-75
2021/04/08 16:13:58;;;;;;;5.40;3.83;;;11.50;59.70;;;;;;6753707;88;20593;-75
2021/04/08 16:23:58;;;;;;;8.77;4.30;;;11.00;63.80;;;;;;6753291;88;20196;-75
2021/04/08 16:33:59;;;;;;;8.68;3.80;;;10.90;64.20;;;;;;6757162;88;20216;-75
2021/04/08 16:44:01;;;;;;;8.60;4.18;;;10.70;62.90;;;;;;6757011;88;20187;-75
2021/04/08 16:54:03;;;;;;;7.07;4.15;;;10.50;63.70;;;;;;6753578;88;20204;-76
2021/04/08 17:04:05;;;;;;;10.23;4.12;;;10.20;63.80;;;;;;6750396;88;21083;-76
2021/04/08 17:14:05;;;;;;;10.00;4.37;;;10.10;63.70;;;;;;6730444;88;20311;-76
2021/04/08 17:24:06;;;;;;;7.43;3.72;;;9.80;64.20;;;;;;6745235;88;20195;-75
2021/04/08 17:34:07;;;;;;;7.70;3.70;;;9.40;65.90;;;;;;6754212;87;20332;-75
2021/04/08 17:44:08;;;;;;;8.25;4.00;;;9.10;66.70;;;;;;6753996;87;20204;-76
2021/04/08 17:54:08;;;;;;;8.75;3.97;;;8.80;68.20;;;;;;6753908;87;20207;-76
2021/04/08 18:04:09;;;;;;;9.60;4.10;;;8.40;70.80;;;;;;6745396;88;20722;-76
2021/04/08 18:14:09;;;;;;;7.50;4.18;;;8.10;71.10;;;;;;6736584;88;20536;-76
2021/04/08 18:24:10;;;;;;;8.02;3.87;;;7.80;72.90;;;;;;6736430;88;20572;-76
2021/04/08 18:34:11;;;;;;;10.33;4.27;;;7.60;76.50;;;;;;6749019;88;20636;-76
2021/04/08 18:44:11;;;;;;;10.75;4.40;;;7.60;79.40;;;;;;6748651;88;20496;-76
2021/04/08 18:54:12;;;;;;;11.47;4.37;;;7.10;83.60;;;;;;6744735;88;20215;-76
2021/04/08 19:04:13;;;;;;;9.80;5.00;;;6.80;88.40;;;;;;6735962;88;20632;-76
2021/04/08 19:14:14;;;;;;;11.25;6.03;;;6.70;90.20;;;;;;6736102;88;20224;-76
2021/04/08 19:24:14;;;;;;;9.65;4.50;;;6.50;93.60;;;;;;6736911;88;20948;-76
2021/04/08 19:34:15;;;;;;;9.95;4.40;;;6.30;94.90;;;;;;6736910;88;20254;-76
2021/04/08 19:44:16;;;;;;;9.60;4.72;;;5.90;95.70;;;;;;6736382;88;20209;-75
2021/04/08 19:54:16;;;;;;;11.02;4.97;;;5.80;96.50;;;;;;6735942;88;20200;-75
2021/04/08 20:04:17;;;;;;;9.32;4.78;;;5.60;98.70;;;;;;6734952;88;20242;-76
2021/04/08 20:14:17;;;;;;;10.60;4.30;;;5.40;99.10;;;;;;6737740;88;20200;-77
2021/04/08 20:24:18;;;;;;;11.40;4.15;;;5.30;99.50;;;;;;6748184;88;20224;-77
2021/04/08 20:34:19;;;;;;;12.20;5.35;;;5.20;99.90;;;;;;6736665;88;20520;-77
2021/04/08 20:44:19;;;;;;;9.80;5.05;;;4.80;99.90;;;;;;6736436;88;20222;-76
2021/04/08 20:54:20;;;;;;;12.98;5.18;;;4.70;99.90;;;;;;6743970;88;20206;-77
2021/04/08 21:04:20;;;;;;;10.85;4.85;;;4.60;99.90;;;;;;6748288;88;20254;-77
2021/04/08 21:14:21;;;;;;;12.20;5.32;;;4.40;99.90;;;;;;6736532;88;20267;-75
2021/04/08 21:24:21;;;;;;;8.25;4.05;;;4.30;99.90;;;;;;6737024;88;20645;-74
2021/04/08 21:34:23;;;;;;;10.30;4.60;;;4.20;99.90;;;;;;6736121;88;20211;-74
2021/04/08 21:44:24;;;;;;;10.18;4.07;;;4.20;99.90;;;;;;6737021;88;20359;-74
2021/04/08 21:54:25;;;;;;;9.95;4.20;;;4.10;99.90;;;;;;6738262;88;20180;-75
2021/04/08 22:04:25;;;;;;;9.45;4.15;;;4.10;99.90;;;;;;6738214;88;20200;-74
2021/04/08 22:14:26;;;;;;;8.40;4.22;;;4.30;99.90;;;;;;6738729;88;20214;-76
2021/04/08 22:24:27;;;;;;;7.72;3.90;;;4.30;99.90;;;;;;6739858;88;20811;-75
2021/04/08 22:34:29;;;;;;;10.50;4.30;;;4.10;99.90;;;;;;6736039;88;20531;-76
2021/04/08 22:44:30;;;;;;;9.68;4.57;;;3.90;99.90;;;;;;6737963;88;20653;-75
2021/04/08 22:54:31;;;;;;;9.15;4.03;;;3.90;99.90;;;;;;6748540;77;20763;-74
2021/04/08 23:04:32;;;;;;;8.25;4.00;;;3.80;99.90;;;;;;6737954;88;20196;-74
2021/04/08 23:14:32;;;;;;;8.93;4.30;;;3.60;99.90;;;;;;6719485;88;20975;-74
2021/04/08 23:24:33;;;;;;;12.18;4.45;;;3.60;99.90;;;;;;6719739;88;20669;-74
2021/04/08 23:34:34;;;;;;;13.18;4.80;;;3.50;99.90;;;;;;6722941;88;20305;-74
2021/04/08 23:44:35;;;;;;;8.45;4.03;;;3.50;99.90;;;;;;6726015;88;20197;-73
2021/04/08 23:54:36;;;;;;;9.20;4.10;;;3.50;99.90;;;;;;6723541;88;20177;-74
